Time;durP1;ratioP1;P1;durP2;ratioP2;P2;SDS_P1;SDS_P2;PMS_P1;PMS_P2;Temp;Humidity;BMP_temperature;BMP_pressure;BME280_temperature;BME280_humidity;BME280_pressure;Samples;Min_cycle;Max_cycle;Signal;HPM_P1;HPM_P2
2022/07/17 00:01:17;;;;;;;3.42;1.60;;;;;;;;;;5010447;28;20037;-73
2022/07/17 00:03:42;;;;;;;4.22;1.60;;;;;;;;;;5008890;28;20021;-73
2022/07/17 00:06:07;;;;;;;3.88;1.60;;;;;;;;;;5010774;28;20026;-72
2022/07/17 00:08:33;;;;;;;4.88;1.85;;;;;;;;;;5005796;28;20037;-73
2022/07/17 00:10:59;;;;;;;3.50;1.40;;;;;;;;;;5008219;28;20033;-73
2022/07/17 00:13:24;;;;;;;3.25;1.40;;;;;;;;;;5005114;28;20030;-73
2022/07/17 00:15:50;;;;;;;3.72;1.60;;;;;;;;;;5005543;28;20033;-72
2022/07/17 00:18:16;;;;;;;5.13;1.95;;;;;;;;;;5008198;28;20033;-73
2022/07/17 00:20:43;;;;;;;3.03;1.70;;;;;;;;;;5005863;28;20028;-73
2022/07/17 00:23:08;;;;;;;4.45;1.70;;;;;;;;;;5001761;28;20103;-73
2022/07/17 00:25:34;;;;;;;4.88;1.77;;;;;;;;;;5002439;28;20038;-73
2022/07/17 00:27:59;;;;;;;3.60;1.65;;;;;;;;;;5004482;28;20029;-71
2022/07/17 00:30:24;;;;;;;3.85;1.67;;;;;;;;;;5002287;28;21092;-71
2022/07/17 00:32:50;;;;;;;4.07;1.73;;;;;;;;;;5003337;28;20998;-73
2022/07/17 00:35:15;;;;;;;5.45;1.90;;;;;;;;;;5004356;28;20113;-72
2022/07/17 00:37:42;;;;;;;4.40;1.90;;;;;;;;;;4997599;28;20397;-73
2022/07/17 00:40:10;;;;;;;3.72;1.70;;;;;;;;;;5004899;28;20030;-73
2022/07/17 00:42:38;;;;;;;4.10;2.17;;;;;;;;;;4999367;28;20033;-73
2022/07/17 00:45:04;;;;;;;4.68;2.00;;;;;;;;;;5003111;28;20021;-72
2022/07/17 00:47:30;;;;;;;3.83;1.85;;;;;;;;;;5001599;28;20033;-72
2022/07/17 00:49:55;;;;;;;3.38;1.80;;;;;;;;;;5003745;28;20025;-72
2022/07/17 00:52:20;;;;;;;3.83;1.70;;;;;;;;;;5005286;28;20306;-73
2022/07/17 00:54:46;;;;;;;4.13;1.90;;;;;;;;;;5005571;28;20045;-73
2022/07/17 00:57:15;;;;;;;5.10;1.77;;;;;;;;;;5003364;28;20036;-72
2022/07/17 00:59:41;;;;;;;6.00;2.00;;;;;;;;;;5003801;28;20709;-73
2022/07/17 01:02:09;;;;;;;4.18;1.98;;;;;;;;;;5004935;28;20025;-73
2022/07/17 01:04:35;;;;;;;4.22;1.90;;;;;;;;;;5007238;28;20034;-73
2022/07/17 01:07:03;;;;;;;4.95;2.13;;;;;;;;;;5017929;28;20084;-73
2022/07/17 01:09:29;;;;;;;3.20;1.75;;;;;;;;;;5005854;28;20682;-72
2022/07/17 01:11:55;;;;;;;3.72;1.80;;;;;;;;;;5005366;28;20518;-73
2022/07/17 01:14:23;;;;;;;4.90;2.10;;;;;;;;;;5008220;28;20466;-73
2022/07/17 01:16:51;;;;;;;3.88;2.10;;;;;;;;;;5002935;28;20021;-73
2022/07/17 01:19:16;;;;;;;3.83;2.13;;;;;;;;;;5004765;28;20045;-73
2022/07/17 01:21:44;;;;;;;4.18;1.98;;;;;;;;;;5003709;28;20505;-73
2022/07/17 01:24:10;;;;;;;4.47;1.80;;;;;;;;;;5005958;28;20120;-73
2022/07/17 01:26:36;;;;;;;4.38;2.10;;;;;;;;;;5002295;28;21529;-73
2022/07/17 01:29:02;;;;;;;3.40;2.10;;;;;;;;;;5003322;28;20029;-72
2022/07/17 01:31:28;;;;;;;4.07;2.30;;;;;;;;;;4997222;28;20030;-73
2022/07/17 01:33:53;;;;;;;4.60;2.17;;;;;;;;;;5005013;28;20041;-73
2022/07/17 01:36:25;;;;;;;3.35;2.10;;;;;;;;;;5000652;28;20033;-73
2022/07/17 01:38:50;;;;;;;3.55;2.00;;;;;;;;;;5004686;28;20061;-72
2022/07/17 01:41:16;;;;;;;5.10;1.88;;;;;;;;;;5001048;28;20073;-73
2022/07/17 01:43:41;;;;;;;2.75;2.00;;;;;;;;;;5003315;28;20022;-73
2022/07/17 01:46:07;;;;;;;5.40;2.50;;;;;;;;;;5001460;28;20095;-73
2022/07/17 01:48:33;;;;;;;4.90;2.03;;;;;;;;;;5004287;28;20037;-73
2022/07/17 01:50:58;;;;;;;4.65;2.00;;;;;;;;;;5003480;28;20030;-73
2022/07/17 01:53:24;;;;;;;4.80;2.10;;;;;;;;;;5004254;28;20093;-73
2022/07/17 01:55:49;;;;;;;3.90;1.98;;;;;;;;;;5005253;28;20131;-73
2022/07/17 01:58:15;;;;;;;3.85;1.90;;;;;;;;;;5005877;28;20037;-73
2022/07/17 02:00:41;;;;;;;4.75;2.05;;;;;;;;;;5006084;28;20057;-73
2022/07/17 02:03:06;;;;;;;4.03;2.10;;;;;;;;;;5002810;28;20022;-71
2022/07/17 02:05:31;;;;;;;3.83;2.13;;;;;;;;;;5006769;28;20560;-73
2022/07/17 02:07:57;;;;;;;4.90;1.95;;;;;;;;;;5003554;28;20025;-72
2022/07/17 02:10:23;;;;;;;4.47;2.30;;;;;;;;;;5005187;28;20121;-72
2022/07/17 02:12:48;;;;;;;4.40;2.13;;;;;;;;;;5006043;28;20026;-73
2022/07/17 02:15:14;;;;;;;3.85;2.20;;;;;;;;;;5004604;28;20025;-72
2022/07/17 02:17:40;;;;;;;3.28;2.10;;;;;;;;;;5004675;28;20398;-73
2022/07/17 02:20:07;;;;;;;3.65;2.08;;;;;;;;;;5007027;28;20026;-73
2022/07/17 02:22:33;;;;;;;5.82;2.22;;;;;;;;;;5003348;28;20148;-73
2022/07/17 02:24:58;;;;;;;3.88;1.95;;;;;;;;;;5002678;28;20034;-72
2022/07/17 02:27:24;;;;;;;3.55;2.05;;;;;;;;;;5005889;28;20072;-73
2022/07/17 02:29:49;;;;;;;4.85;2.25;;;;;;;;;;4998852;28;20486;-74
2022/07/17 02:32:14;;;;;;;3.83;2.40;;;;;;;;;;5001572;28;20029;-73
2022/07/17 02:34:40;;;;;;;3.90;2.20;;;;;;;;;;5003801;28;20042;-73
2022/07/17 02:37:06;;;;;;;3.97;2.10;;;;;;;;;;5004614;28;20030;-73
2022/07/17 02:39:31;;;;;;;4.13;2.40;;;;;;;;;;5003309;28;20072;-73
2022/07/17 02:41:57;;;;;;;5.90;2.30;;;;;;;;;;5007428;28;20041;-73
2022/07/17 02:44:22;;;;;;;6.22;2.58;;;;;;;;;;5003384;28;20030;-72
2022/07/17 02:46:47;;;;;;;4.65;2.22;;;;;;;;;;5000900;28;20044;-72
2022/07/17 02:49:13;;;;;;;3.97;2.00;;;;;;;;;;5009766;28;20038;-72
2022/07/17 02:51:38;;;;;;;4.55;2.15;;;;;;;;;;5009370;28;20029;-73
2022/07/17 02:54:03;;;;;;;5.28;2.25;;;;;;;;;;5002554;28;20026;-73
2022/07/17 02:56:29;;;;;;;5.60;2.20;;;;;;;;;;5008536;28;20037;-72
2022/07/17 02:58:54;;;;;;;4.55;2.35;;;;;;;;;;5000840;28;20030;-73
2022/07/17 03:01:19;;;;;;;3.83;2.30;;;;;;;;;;5006014;28;20086;-73
2022/07/17 03:03:45;;;;;;;3.80;2.17;;;;;;;;;;5006562;28;20030;-72
2022/07/17 03:06:11;;;;;;;3.65;2.10;;;;;;;;;;5003384;28;20029;-73
2022/07/17 03:08:37;;;;;;;4.00;1.95;;;;;;;;;;5007442;28;20029;-73
2022/07/17 03:11:02;;;;;;;4.28;2.42;;;;;;;;;;5007283;28;20034;-72
2022/07/17 03:13:27;;;;;;;4.50;2.40;;;;;;;;;;5006304;28;20061;-72
2022/07/17 03:15:53;;;;;;;6.05;2.40;;;;;;;;;;5007273;28;20025;-73
2022/07/17 03:18:18;;;;;;;3.97;2.10;;;;;;;;;;5004576;28;21351;-73
2022/07/17 03:20:43;;;;;;;4.13;2.22;;;;;;;;;;5004997;28;20468;-73
2022/07/17 03:23:09;;;;;;;3.55;1.92;;;;;;;;;;5007709;28;20030;-72
2022/07/17 03:25:34;;;;;;;4.38;1.98;;;;;;;;;;5006271;28;20025;-73
2022/07/17 03:28:00;;;;;;;3.63;2.00;;;;;;;;;;5004603;28;20030;-73
2022/07/17 03:30:25;;;;;;;3.08;1.60;;;;;;;;;;5001844;28;20041;-73
2022/07/17 03:32:50;;;;;;;2.60;1.58;;;;;;;;;;5004524;28;20482;-73
2022/07/17 03:35:16;;;;;;;3.33;1.83;;;;;;;;;;5006116;28;20026;-73
2022/07/17 03:37:43;;;;;;;3.58;1.70;;;;;;;;;;5006629;28;20025;-73
2022/07/17 03:40:10;;;;;;;3.50;1.70;;;;;;;;;;5002973;28;20034;-73
2022/07/17 03:42:35;;;;;;;3.72;1.90;;;;;;;;;;5005580;28;20433;-73
2022/07/17 03:45:00;;;;;;;3.17;1.80;;;;;;;;;;5004164;28;20018;-73
2022/07/17 03:47:26;;;;;;;4.25;1.50;;;;;;;;;;5001126;28;20030;-72
2022/07/17 03:49:51;;;;;;;4.05;1.90;;;;;;;;;;5006841;28;20084;-73
2022/07/17 03:52:16;;;;;;;4.18;1.70;;;;;;;;;;4998599;28;20676;-73
2022/07/17 03:54:42;;;;;;;4.45;1.83;;;;;;;;;;5003715;28;20026;-72
2022/07/17 03:57:07;;;;;;;3.55;1.73;;;;;;;;;;5004795;28;20029;-73
2022/07/17 03:59:32;;;;;;;4.35;1.58;;;;;;;;;;5003593;28;20026;-72
2022/07/17 04:01:58;;;;;;;3.40;1.50;;;;;;;;;;5004875;28;20053;-72
2022/07/17 04:04:23;;;;;;;3.40;1.80;;;;;;;;;;5002537;28;20892;-73
2022/07/17 04:06:49;;;;;;;4.20;1.80;;;;;;;;;;5005095;28;20022;-72
2022/07/17 04:09:14;;;;;;;2.08;1.50;;;;;;;;;;5005347;28;20458;-72
2022/07/17 04:11:39;;;;;;;2.92;1.67;;;;;;;;;;5007014;28;20054;-73
2022/07/17 04:14:05;;;;;;;4.20;1.90;;;;;;;;;;5007001;28;20022;-73
2022/07/17 04:16:30;;;;;;;3.17;1.67;;;;;;;;;;5008726;28;20025;-73
2022/07/17 04:18:56;;;;;;;3.70;1.67;;;;;;;;;;5008722;28;20502;-72
2022/07/17 04:21:21;;;;;;;2.88;1.50;;;;;;;;;;5006642;28;20499;-72
2022/07/17 04:23:46;;;;;;;3.35;1.80;;;;;;;;;;5004712;28;20030;-72
2022/07/17 04:26:12;;;;;;;4.32;1.58;;;;;;;;;;5007444;28;20036;-73
2022/07/17 04:28:40;;;;;;;8.05;2.20;;;;;;;;;;5006601;28;20072;-73
2022/07/17 04:31:06;;;;;;;5.90;1.75;;;;;;;;;;5022220;28;20034;-73
2022/07/17 04:33:32;;;;;;;5.95;2.10;;;;;;;;;;5000887;28;20049;-72
2022/07/17 04:35:57;;;;;;;2.90;1.80;;;;;;;;;;5006888;28;20030;-72
2022/07/17 04:38:22;;;;;;;4.30;1.60;;;;;;;;;;5002017;28;20157;-73
2022/07/17 04:40:48;;;;;;;2.15;1.25;;;;;;;;;;5010617;28;20047;-73
2022/07/17 04:43:13;;;;;;;2.05;1.40;;;;;;;;;;5007171;28;20026;-73
2022/07/17 04:45:39;;;;;;;4.00;1.63;;;;;;;;;;5003360;28;20027;-72
2022/07/17 04:48:05;;;;;;;3.45;1.60;;;;;;;;;;5004597;28;20028;-73
2022/07/17 04:50:30;;;;;;;3.38;1.55;;;;;;;;;;5000270;28;20423;-73
2022/07/17 04:52:56;;;;;;;3.65;1.60;;;;;;;;;;5001395;28;20033;-73
2022/07/17 04:55:22;;;;;;;3.45;1.48;;;;;;;;;;5005217;28;20025;-72
2022/07/17 04:57:48;;;;;;;4.18;1.48;;;;;;;;;;5002935;28;20025;-72
2022/07/17 05:00:15;;;;;;;5.47;1.70;;;;;;;;;;5005028;28;20378;-73
2022/07/17 05:02:40;;;;;;;3.80;1.80;;;;;;;;;;4997568;28;20038;-73
2022/07/17 05:05:06;;;;;;;5.20;1.73;;;;;;;;;;5004597;28;20030;-73
2022/07/17 05:07:31;;;;;;;4.80;1.55;;;;;;;;;;4999651;28;21978;-73
2022/07/17 05:09:57;;;;;;;3.72;1.63;;;;;;;;;;5005050;28;20030;-73
2022/07/17 05:12:22;;;;;;;3.05;1.67;;;;;;;;;;5004620;28;20072;-73
2022/07/17 05:14:47;;;;;;;6.45;1.60;;;;;;;;;;5001509;28;20544;-73
2022/07/17 05:17:13;;;;;;;4.75;1.60;;;;;;;;;;5014083;28;20719;-73
2022/07/17 05:19:38;;;;;;;6.07;1.80;;;;;;;;;;5003088;28;20025;-72
2022/07/17 05:22:04;;;;;;;3.47;1.73;;;;;;;;;;5005660;28;20096;-73
2022/07/17 05:24:30;;;;;;;3.38;1.70;;;;;;;;;;5006071;28;20034;-73
2022/07/17 05:26:55;;;;;;;4.18;1.85;;;;;;;;;;5005080;28;20025;-73
2022/07/17 05:29:21;;;;;;;3.08;1.70;;;;;;;;;;5006300;28;20034;-73
2022/07/17 05:31:46;;;;;;;4.13;2.10;;;;;;;;;;5005802;28;20481;-73
2022/07/17 05:34:12;;;;;;;3.03;1.80;;;;;;;;;;5000904;28;20113;-73
2022/07/17 05:36:37;;;;;;;4.13;1.80;;;;;;;;;;4995731;28;20037;-73
2022/07/17 05:39:03;;;;;;;3.00;1.60;;;;;;;;;;5004472;28;20033;-73
2022/07/17 05:41:28;;;;;;;3.47;1.80;;;;;;;;;;5007106;28;20545;-73
2022/07/17 05:43:53;;;;;;;2.92;1.60;;;;;;;;;;5006386;28;20057;-72
2022/07/17 05:46:19;;;;;;;3.97;1.95;;;;;;;;;;5003549;28;20033;-73
2022/07/17 05:48:44;;;;;;;3.47;1.50;;;;;;;;;;5004859;28;20022;-73
2022/07/17 05:51:09;;;;;;;3.88;1.70;;;;;;;;;;5005254;28;20061;-72
2022/07/17 05:53:35;;;;;;;6.53;1.83;;;;;;;;;;5008108;28;20114;-73
2022/07/17 05:56:00;;;;;;;4.20;1.63;;;;;;;;;;5007371;28;20030;-72
2022/07/17 05:58:26;;;;;;;3.00;1.33;;;;;;;;;;5003053;28;20064;-73
2022/07/17 06:00:51;;;;;;;4.03;1.50;;;;;;;;;;5005934;28;20053;-72
2022/07/17 06:03:17;;;;;;;3.83;1.40;;;;;;;;;;5007958;28;20036;-72
2022/07/17 06:05:43;;;;;;;3.88;1.50;;;;;;;;;;5008093;28;20108;-73
2022/07/17 06:08:08;;;;;;;4.82;1.45;;;;;;;;;;5009481;28;20133;-73
2022/07/17 06:10:35;;;;;;;3.78;1.25;;;;;;;;;;5008999;28;20038;-73
2022/07/17 06:13:00;;;;;;;3.50;1.30;;;;;;;;;;5003705;28;20038;-71
2022/07/17 06:15:26;;;;;;;3.95;1.20;;;;;;;;;;5026100;28;20473;-72
2022/07/17 06:17:51;;;;;;;5.10;1.30;;;;;;;;;;5010960;28;20057;-73
2022/07/17 06:20:18;;;;;;;4.22;1.60;;;;;;;;;;5012353;28;20030;-73
2022/07/17 06:22:44;;;;;;;3.85;1.30;;;;;;;;;;5012138;28;20604;-73
2022/07/17 06:25:10;;;;;;;2.55;1.20;;;;;;;;;;5009923;28;20026;-73
2022/07/17 06:27:39;;;;;;;5.90;1.60;;;;;;;;;;5008879;28;20077;-73
2022/07/17 06:30:05;;;;;;;2.63;1.48;;;;;;;;;;5005640;28;20068;-73
2022/07/17 06:32:31;;;;;;;3.65;1.38;;;;;;;;;;5008703;28;20041;-73
2022/07/17 06:34:56;;;;;;;3.60;1.30;;;;;;;;;;5007010;28;20038;-72
2022/07/17 06:37:21;;;;;;;5.30;1.85;;;;;;;;;;5007950;28;20100;-72
2022/07/17 06:39:47;;;;;;;4.00;1.88;;;;;;;;;;5009853;28;20026;-73
2022/07/17 06:42:12;;;;;;;4.72;1.63;;;;;;;;;;5007762;28;20072;-73
2022/07/17 06:44:38;;;;;;;5.60;1.60;;;;;;;;;;5008275;28;20026;-72
2022/07/17 06:47:03;;;;;;;4.70;1.48;;;;;;;;;;5007342;28;20022;-73
2022/07/17 06:49:28;;;;;;;3.30;1.40;;;;;;;;;;5006938;28;20500;-73
2022/07/17 06:51:54;;;;;;;3.83;1.50;;;;;;;;;;5011088;28;20639;-73
2022/07/17 06:54:23;;;;;;;4.97;1.70;;;;;;;;;;5008959;28;20033;-73
2022/07/17 06:56:48;;;;;;;4.25;1.55;;;;;;;;;;5007926;28;20382;-72
2022/07/17 06:59:14;;;;;;;3.25;1.70;;;;;;;;;;5007277;28;20042;-73
2022/07/17 07:01:39;;;;;;;4.93;1.60;;;;;;;;;;5004366;28;20568;-72
2022/07/17 07:04:04;;;;;;;6.18;1.88;;;;;;;;;;5000910;28;20501;-72
2022/07/17 07:06:30;;;;;;;4.70;1.60;;;;;;;;;;5009143;28;20034;-73
2022/07/17 07:08:57;;;;;;;5.10;2.05;;;;;;;;;;5005426;28;20069;-73
2022/07/17 07:11:23;;;;;;;8.40;1.83;;;;;;;;;;5009266;28;20890;-73
2022/07/17 07:13:49;;;;;;;4.88;1.60;;;;;;;;;;5011366;28;20470;-72
2022/07/17 07:16:14;;;;;;;5.90;1.60;;;;;;;;;;5005817;28;20037;-73
2022/07/17 07:18:40;;;;;;;3.17;1.40;;;;;;;;;;5006050;28;20033;-72
2022/07/17 07:21:05;;;;;;;3.83;1.67;;;;;;;;;;5011168;28;20029;-73
2022/07/17 07:23:31;;;;;;;5.53;1.88;;;;;;;;;;5014643;28;20040;-72
2022/07/17 07:25:56;;;;;;;6.95;1.58;;;;;;;;;;5006814;28;20478;-73
2022/07/17 07:28:22;;;;;;;4.13;1.42;;;;;;;;;;5014462;28;20022;-73
2022/07/17 07:30:47;;;;;;;4.35;1.67;;;;;;;;;;5011359;28;20025;-72
2022/07/17 07:33:13;;;;;;;3.45;1.40;;;;;;;;;;5005745;28;20517;-73
2022/07/17 07:35:38;;;;;;;4.07;1.30;;;;;;;;;;5009647;28;20375;-73
2022/07/17 07:38:04;;;;;;;4.70;1.58;;;;;;;;;;5003941;28;20046;-73
2022/07/17 07:40:30;;;;;;;4.03;1.30;;;;;;;;;;4997925;28;20077;-73
2022/07/17 07:42:57;;;;;;;3.90;1.40;;;;;;;;;;5006878;28;20099;-73
2022/07/17 07:45:23;;;;;;;4.13;1.38;;;;;;;;;;5009215;28;20045;-73
2022/07/17 07:47:50;;;;;;;4.35;1.50;;;;;;;;;;5008568;28;20033;-72
2022/07/17 07:50:16;;;;;;;4.55;1.40;;;;;;;;;;5007117;28;20021;-73
2022/07/17 07:52:42;;;;;;;3.35;1.20;;;;;;;;;;5003596;28;20042;-73
2022/07/17 07:55:09;;;;;;;5.68;1.30;;;;;;;;;;5009722;28;20026;-73
2022/07/17 07:57:35;;;;;;;4.47;1.27;;;;;;;;;;5009435;28;20025;-74
2022/07/17 08:00:00;;;;;;;3.53;1.17;;;;;;;;;;5004873;28;20417;-73
2022/07/17 08:02:26;;;;;;;4.22;1.30;;;;;;;;;;5009850;28;20074;-73
2022/07/17 08:04:51;;;;;;;3.20;1.27;;;;;;;;;;5011033;28;20441;-72
2022/07/17 08:07:17;;;;;;;3.92;1.20;;;;;;;;;;5007135;28;20033;-72
2022/07/17 08:09:42;;;;;;;5.10;1.60;;;;;;;;;;5008021;28;20053;-75
2022/07/17 08:12:07;;;;;;;4.03;1.40;;;;;;;;;;5006816;28;20022;-73
2022/07/17 08:14:33;;;;;;;6.53;1.70;;;;;;;;;;5006455;28;20112;-73
2022/07/17 08:16:58;;;;;;;4.40;1.20;;;;;;;;;;5003400;28;20037;-73
2022/07/17 08:19:24;;;;;;;4.80;1.40;;;;;;;;;;5004646;28;20151;-73
2022/07/17 08:21:49;;;;;;;4.43;1.00;;;;;;;;;;5008153;28;20022;-74
2022/07/17 08:24:15;;;;;;;3.05;1.00;;;;;;;;;;5002392;28;20038;-74
2022/07/17 08:26:41;;;;;;;2.97;0.90;;;;;;;;;;5010802;28;20449;-72
2022/07/17 08:29:06;;;;;;;5.72;1.25;;;;;;;;;;5005358;28;20030;-71
2022/07/17 08:31:32;;;;;;;2.55;1.10;;;;;;;;;;5001505;28;20554;-72
2022/07/17 08:33:57;;;;;;;3.53;1.00;;;;;;;;;;5007936;28;20521;-74
2022/07/17 08:36:22;;;;;;;4.30;1.13;;;;;;;;;;5011677;28;20033;-74
2022/07/17 08:38:48;;;;;;;4.55;1.33;;;;;;;;;;5005398;28;20057;-72
2022/07/17 08:41:16;;;;;;;3.08;1.15;;;;;;;;;;5008085;28;20040;-73
2022/07/17 08:43:42;;;;;;;7.70;2.03;;;;;;;;;;5009157;28;20026;-74
2022/07/17 08:46:11;;;;;;;2.97;1.20;;;;;;;;;;5002288;28;20044;-75
2022/07/17 08:48:39;;;;;;;3.40;1.20;;;;;;;;;;5012456;28;20472;-72
2022/07/17 08:51:06;;;;;;;3.83;1.23;;;;;;;;;;5003999;28;20033;-73
2022/07/17 08:53:31;;;;;;;4.45;1.48;;;;;;;;;;5008697;28;20064;-74
2022/07/17 08:55:57;;;;;;;4.88;1.25;;;;;;;;;;5007324;28;20050;-72
2022/07/17 08:58:23;;;;;;;4.65;1.20;;;;;;;;;;5007294;28;20115;-72
2022/07/17 09:00:50;;;;;;;4.50;1.20;;;;;;;;;;5008452;28;20030;-74
2022/07/17 09:03:17;;;;;;;5.20;0.98;;;;;;;;;;5005014;28;20061;-73
2022/07/17 09:05:43;;;;;;;2.72;1.02;;;;;;;;;;5004100;28;20125;-73
2022/07/17 09:08:16;;;;;;;2.85;0.90;;;;;;;;;;5002835;28;20112;-73
2022/07/17 09:10:45;;;;;;;2.65;1.10;;;;;;;;;;5006989;28;20029;-73
2022/07/17 09:13:15;;;;;;;3.83;1.00;;;;;;;;;;5002838;28;20650;-73
2022/07/17 09:15:41;;;;;;;3.25;1.25;;;;;;;;;;5010978;28;20033;-74
2022/07/17 09:18:06;;;;;;;3.20;0.80;;;;;;;;;;5009446;28;20037;-73
2022/07/17 09:20:31;;;;;;;4.30;0.88;;;;;;;;;;5010419;28;20018;-72
2022/07/17 09:23:02;;;;;;;2.15;0.93;;;;;;;;;;5008037;28;20033;-73
2022/07/17 09:25:36;;;;;;;3.30;0.85;;;;;;;;;;5010848;28;20034;-73
2022/07/17 09:28:04;;;;;;;1.77;0.77;;;;;;;;;;5007381;28;20030;-73
2022/07/17 09:30:31;;;;;;;3.47;1.38;;;;;;;;;;5006800;28;20482;-73
2022/07/17 09:32:56;;;;;;;3.17;1.00;;;;;;;;;;5011636;28;20021;-73
2022/07/17 09:35:23;;;;;;;4.45;1.10;;;;;;;;;;5009935;28;20548;-73
2022/07/17 09:37:51;;;;;;;6.35;1.20;;;;;;;;;;5011995;28;20033;-74
2022/07/17 09:43:01;;;;;;;3.50;1.00;;;;;;;;;;5007778;28;20831;-73
2022/07/17 09:45:27;;;;;;;2.53;0.80;;;;;;;;;;5010926;28;20069;-72
2022/07/17 09:47:53;;;;;;;3.45;1.13;;;;;;;;;;5011531;28;20449;-73
2022/07/17 09:50:19;;;;;;;2.28;1.02;;;;;;;;;;5005661;28;20026;-72
2022/07/17 09:52:45;;;;;;;4.97;1.65;;;;;;;;;;5010287;28;20026;-73
2022/07/17 09:55:11;;;;;;;3.47;1.13;;;;;;;;;;5008694;28;20414;-73
2022/07/17 09:57:40;;;;;;;4.85;1.05;;;;;;;;;;5009398;28;20057;-73
2022/07/17 10:00:12;;;;;;;3.40;1.00;;;;;;;;;;5010409;28;20021;-74
2022/07/17 10:02:41;;;;;;;4.03;1.45;;;;;;;;;;5007476;28;20033;-72
2022/07/17 10:05:11;;;;;;;4.57;1.02;;;;;;;;;;5010106;28;20050;-72
2022/07/17 10:07:40;;;;;;;2.40;0.90;;;;;;;;;;5006690;28;20379;-72
2022/07/17 10:10:07;;;;;;;4.43;1.00;;;;;;;;;;5007666;28;20054;-73
2022/07/17 10:12:34;;;;;;;2.92;1.33;;;;;;;;;;5011742;28;20057;-73
2022/07/17 10:15:00;;;;;;;2.88;0.88;;;;;;;;;;5012660;28;20034;-72
2022/07/17 10:17:25;;;;;;;2.70;0.90;;;;;;;;;;5007370;28;20029;-73
2022/07/17 10:19:55;;;;;;;2.17;0.77;;;;;;;;;;5008945;28;20030;-74
2022/07/17 10:22:22;;;;;;;3.38;0.82;;;;;;;;;;5008201;28;20075;-73
2022/07/17 10:24:54;;;;;;;2.63;0.90;;;;;;;;;;5007980;28;20048;-73
2022/07/17 10:27:22;;;;;;;3.40;1.00;;;;;;;;;;5004522;28;20037;-74
2022/07/17 10:30:05;;;;;;;3.85;1.08;;;;;;;;;;5010087;28;20029;-72
2022/07/17 10:32:31;;;;;;;2.40;0.90;;;;;;;;;;5005289;28;20028;-73
2022/07/17 10:35:11;;;;;;;2.55;0.80;;;;;;;;;;5010671;28;20409;-73
2022/07/17 10:37:36;;;;;;;2.65;0.60;;;;;;;;;;5009032;28;20033;-73
2022/07/17 10:40:20;;;;;;;2.80;0.85;;;;;;;;;;5011149;28;20029;-73
2022/07/17 10:42:52;;;;;;;1.83;0.70;;;;;;;;;;5008672;28;20029;-72
2022/07/17 10:45:23;;;;;;;3.42;0.85;;;;;;;;;;5008930;28;20375;-73
2022/07/17 10:47:58;;;;;;;2.85;0.90;;;;;;;;;;5009626;28;20029;-73
2022/07/17 10:50:35;;;;;;;1.85;0.70;;;;;;;;;;5005542;28;20052;-73
2022/07/17 10:53:33;;;;;;;1.55;0.90;;;;;;;;;;5009474;28;20026;-74
2022/07/17 10:56:03;;;;;;;4.90;0.80;;;;;;;;;;5001059;28;20026;-73
2022/07/17 10:58:33;;;;;;;3.58;0.80;;;;;;;;;;5007174;28;20034;-74
2022/07/17 11:01:05;;;;;;;2.92;0.98;;;;;;;;;;5005035;28;20460;-73
2022/07/17 11:03:42;;;;;;;3.00;1.00;;;;;;;;;;5009750;28;20088;-73
2022/07/17 11:06:14;;;;;;;2.40;0.90;;;;;;;;;;5014186;28;20033;-74
2022/07/17 11:08:48;;;;;;;4.25;0.88;;;;;;;;;;5011012;28;20462;-73
2022/07/17 11:11:16;;;;;;;2.47;0.82;;;;;;;;;;5003937;28;20028;-73
2022/07/17 11:13:42;;;;;;;2.17;0.82;;;;;;;;;;5000515;28;20121;-74
2022/07/17 11:16:08;;;;;;;2.70;1.00;;;;;;;;;;5009287;28;20022;-72
2022/07/17 11:18:34;;;;;;;3.15;0.90;;;;;;;;;;5005527;28;20131;-72
2022/07/17 11:21:01;;;;;;;2.13;0.68;;;;;;;;;;5005026;28;20033;-71
2022/07/17 11:23:28;;;;;;;3.45;0.80;;;;;;;;;;5002943;28;20036;-76
2022/07/17 11:26:03;;;;;;;3.40;1.00;;;;;;;;;;5007867;28;20405;-73
2022/07/17 11:28:39;;;;;;;2.40;0.70;;;;;;;;;;5005396;28;20035;-73
2022/07/17 11:31:27;;;;;;;5.03;0.82;;;;;;;;;;5000544;28;20036;-71
2022/07/17 11:34:05;;;;;;;2.60;0.75;;;;;;;;;;5006063;28;20042;-72
2022/07/17 11:36:35;;;;;;;1.98;0.90;;;;;;;;;;5007794;28;20453;-73
2022/07/17 11:39:06;;;;;;;1.95;0.80;;;;;;;;;;5007854;28;20497;-73
2022/07/17 11:41:37;;;;;;;2.05;0.82;;;;;;;;;;5006550;28;20187;-73
2022/07/17 11:44:05;;;;;;;3.55;0.90;;;;;;;;;;5005034;28;20757;-72
2022/07/17 11:46:33;;;;;;;1.40;0.70;;;;;;;;;;5004488;28;20160;-72
2022/07/17 11:48:58;;;;;;;4.10;1.00;;;;;;;;;;5008648;28;20688;-72
2022/07/17 11:51:55;;;;;;;2.22;0.90;;;;;;;;;;5008522;28;20040;-72
2022/07/17 11:54:20;;;;;;;3.00;0.73;;;;;;;;;;4994868;28;20042;-72
2022/07/17 11:56:57;;;;;;;2.92;0.80;;;;;;;;;;5005803;28;20033;-72
2022/07/17 11:59:26;;;;;;;3.33;0.85;;;;;;;;;;5000840;28;20392;-73
2022/07/17 12:01:52;;;;;;;1.92;0.80;;;;;;;;;;5004822;28;20030;-72
2022/07/17 12:04:17;;;;;;;1.23;0.80;;;;;;;;;;5007810;28;20033;-73
2022/07/17 12:06:44;;;;;;;3.42;0.73;;;;;;;;;;5006920;28;20030;-72
2022/07/17 12:09:09;;;;;;;2.70;0.80;;;;;;;;;;4998706;28;20037;-73
2022/07/17 12:11:49;;;;;;;3.50;1.35;;;;;;;;;;5000903;28;20021;-72
2022/07/17 12:14:15;;;;;;;2.70;0.68;;;;;;;;;;4997299;28;20066;-73
2022/07/17 12:16:40;;;;;;;2.53;0.65;;;;;;;;;;5005627;28;20481;-73
2022/07/17 12:19:14;;;;;;;1.98;0.63;;;;;;;;;;5021467;28;20076;-72
2022/07/17 12:21:47;;;;;;;3.28;0.75;;;;;;;;;;5007294;28;20030;-72
2022/07/17 12:24:18;;;;;;;;;;;;;;;;;;5004384;28;20402;-73
2022/07/17 12:26:43;;;;;;;3.53;0.95;;;;;;;;;;5000053;28;19921;-74
2022/07/17 12:29:08;;;;;;;2.78;0.73;;;;;;;;;;4994554;28;20044;-72
2022/07/17 12:31:34;;;;;;;2.10;0.80;;;;;;;;;;4998226;28;20146;-72
2022/07/17 12:33:59;;;;;;;4.05;0.82;;;;;;;;;;5007679;28;20134;-72
2022/07/17 12:36:24;;;;;;;2.25;0.93;;;;;;;;;;5008588;28;20029;-73
2022/07/17 12:38:50;;;;;;;2.70;0.70;;;;;;;;;;5009677;28;20030;-72
2022/07/17 12:41:16;;;;;;;2.42;1.00;;;;;;;;;;5009237;28;20055;-73
2022/07/17 12:43:41;;;;;;;2.65;0.80;;;;;;;;;;5007325;28;20062;-72
2022/07/17 12:46:07;;;;;;;2.53;0.90;;;;;;;;;;5007951;28;20121;-73
2022/07/17 12:48:32;;;;;;;2.55;0.73;;;;;;;;;;5006480;28;20120;-73
2022/07/17 12:50:58;;;;;;;2.90;0.93;;;;;;;;;;5008957;28;20033;-72
2022/07/17 12:53:23;;;;;;;2.75;0.80;;;;;;;;;;5009711;28;20469;-72
2022/07/17 12:55:48;;;;;;;4.47;1.00;;;;;;;;;;5007527;28;20028;-73
2022/07/17 12:58:14;;;;;;;2.35;0.73;;;;;;;;;;5005082;28;20034;-73
2022/07/17 13:00:40;;;;;;;2.13;0.90;;;;;;;;;;5008299;28;20029;-73
2022/07/17 13:03:05;;;;;;;2.28;0.85;;;;;;;;;;5009050;28;20032;-72
2022/07/17 13:05:30;;;;;;;3.10;0.90;;;;;;;;;;5007057;28;20029;-73
2022/07/17 13:07:56;;;;;;;3.65;0.85;;;;;;;;;;5011249;28;20061;-72
2022/07/17 13:10:22;;;;;;;3.90;1.40;;;;;;;;;;5010824;28;20037;-72
2022/07/17 13:12:47;;;;;;;5.63;1.20;;;;;;;;;;5008060;28;20034;-73
2022/07/17 13:15:12;;;;;;;2.50;0.90;;;;;;;;;;5007414;28;20029;-73
2022/07/17 13:17:38;;;;;;;3.17;0.90;;;;;;;;;;5011371;28;20025;-73
2022/07/17 13:20:04;;;;;;;2.92;0.80;;;;;;;;;;5006882;28;20032;-72
2022/07/17 13:22:30;;;;;;;2.63;1.00;;;;;;;;;;5007069;28;20169;-73
2022/07/17 13:24:55;;;;;;;2.90;0.90;;;;;;;;;;5011706;28;20112;-73
2022/07/17 13:27:21;;;;;;;6.30;1.45;;;;;;;;;;5010326;28;20781;-73
2022/07/17 13:29:46;;;;;;;3.17;1.00;;;;;;;;;;5012995;28;20403;-72
2022/07/17 13:32:11;;;;;;;2.75;1.17;;;;;;;;;;5007223;28;20037;-72
2022/07/17 13:34:37;;;;;;;2.58;1.00;;;;;;;;;;5008820;28;20046;-73
2022/07/17 13:37:02;;;;;;;2.33;0.98;;;;;;;;;;5011616;28;20049;-73
2022/07/17 13:39:28;;;;;;;2.30;1.27;;;;;;;;;;5008946;28;20044;-73
2022/07/17 13:41:53;;;;;;;2.42;1.10;;;;;;;;;;5009039;28;20152;-72
2022/07/17 13:44:19;;;;;;;3.45;1.08;;;;;;;;;;5012385;28;20025;-72
2022/07/17 13:46:44;;;;;;;1.98;1.00;;;;;;;;;;5011522;28;20041;-72
2022/07/17 13:49:09;;;;;;;2.90;1.27;;;;;;;;;;5011859;28;20030;-72
2022/07/17 13:51:35;;;;;;;2.47;1.10;;;;;;;;;;5006000;28;20417;-72
2022/07/17 13:54:01;;;;;;;3.42;1.20;;;;;;;;;;5009172;28;20022;-72
2022/07/17 13:56:26;;;;;;;3.10;1.00;;;;;;;;;;5008059;28;20022;-72
2022/07/17 13:58:52;;;;;;;2.17;0.95;;;;;;;;;;5003150;28;20034;-72
2022/07/17 14:01:18;;;;;;;2.53;1.10;;;;;;;;;;4994802;28;20038;-71
2022/07/17 14:03:43;;;;;;;2.88;1.40;;;;;;;;;;5009294;28;20486;-72
2022/07/17 14:06:08;;;;;;;3.78;1.00;;;;;;;;;;5007912;28;20536;-73
2022/07/17 14:08:35;;;;;;;1.98;0.93;;;;;;;;;;5007433;28;20030;-72
2022/07/17 14:11:01;;;;;;;3.40;1.10;;;;;;;;;;5003254;28;20053;-72
2022/07/17 14:13:26;;;;;;;3.22;1.00;;;;;;;;;;4998800;28;20076;-72
2022/07/17 14:15:51;;;;;;;3.92;1.10;;;;;;;;;;5001886;28;20026;-73
2022/07/17 14:18:17;;;;;;;2.78;1.30;;;;;;;;;;5005450;28;20040;-72
2022/07/17 14:20:43;;;;;;;2.03;1.17;;;;;;;;;;5003579;28;20029;-72
2022/07/17 14:23:08;;;;;;;3.10;1.20;;;;;;;;;;5005792;28;20037;-72
2022/07/17 14:25:34;;;;;;;2.83;1.50;;;;;;;;;;5003061;28;20060;-73
2022/07/17 14:27:59;;;;;;;2.00;1.00;;;;;;;;;;4991290;28;20048;-73
2022/07/17 14:30:25;;;;;;;2.63;1.33;;;;;;;;;;4991327;28;20033;-73
2022/07/17 14:32:50;;;;;;;3.35;1.10;;;;;;;;;;4993162;28;20041;-72
2022/07/17 14:35:16;;;;;;;2.78;1.23;;;;;;;;;;4995682;28;20034;-73
2022/07/17 14:37:41;;;;;;;2.65;0.90;;;;;;;;;;5001466;28;20765;-72
2022/07/17 14:40:08;;;;;;;2.17;1.20;;;;;;;;;;5000733;28;20032;-72
2022/07/17 14:42:33;;;;;;;7.75;4.88;;;;;;;;;;5001943;28;20025;-72